createdAt,value
2022-12-19T00:01:29.280Z,24.77
2022-12-19T00:04:00.156Z,18.10
2022-12-19T00:06:28.528Z,20.10
2022-12-19T00:08:56.722Z,19.03
2022-12-19T00:11:25.041Z,21.63
2022-12-19T00:13:51.801Z,17.90
2022-12-19T00:16:23.882Z,16.77
2022-12-19T00:18:55.168Z,15.80
2022-12-19T00:21:24.333Z,22.40
2022-12-19T00:23:51.495Z,18.13
2022-12-19T00:26:22.935Z,18.63
2022-12-19T00:28:53.057Z,20.53
2022-12-19T00:31:22.125Z,21.40
2022-12-19T00:33:49.505Z,13.57
2022-12-19T00:36:22.893Z,16.40
2022-12-19T00:38:51.542Z,17.43
2022-12-19T00:41:30.104Z,14.77
2022-12-19T00:44:02.478Z,19.63
2022-12-19T00:46:30.783Z,15.00
2022-12-19T00:48:57.505Z,18.50
2022-12-19T00:51:26.676Z,14.80
2022-12-19T00:53:55.191Z,17.20
2022-12-19T00:56:24.133Z,14.80
2022-12-19T00:58:50.632Z,18.50
2022-12-19T01:01:25.266Z,16.13
2022-12-19T01:04:26.573Z,20.37
2022-12-19T01:06:38.196Z,15.27
2022-12-19T01:09:07.811Z,18.57
2022-12-19T01:11:57.339Z,21.53
2022-12-19T01:14:23.644Z,14.07
2022-12-19T01:16:51.059Z,18.00
2022-12-19T01:19:17.434Z,18.07
2022-12-19T01:21:43.799Z,17.80
2022-12-19T01:24:10.526Z,16.57
2022-12-19T01:26:36.869Z,18.97
2022-12-19T01:29:04.730Z,16.60
2022-12-19T01:31:31.229Z,18.30
2022-12-19T01:33:59.659Z,17.80
2022-12-19T01:36:26.173Z,15.47
2022-12-19T01:38:58.134Z,19.90
2022-12-19T01:41:24.607Z,18.10
2022-12-19T01:44:14.727Z,18.30
2022-12-19T01:46:45.874Z,14.80
2022-12-19T01:49:17.388Z,15.37
2022-12-19T01:51:48.256Z,17.97
2022-12-19T01:54:19.690Z,14.37
2022-12-19T01:56:50.666Z,16.00
2022-12-19T01:59:22.615Z,17.10
2022-12-19T02:01:56.934Z,16.23
2022-12-19T02:04:27.090Z,19.50
2022-12-19T02:06:59.583Z,17.60
2022-12-19T02:09:41.931Z,17.10
2022-12-19T02:12:08.307Z,15.17
2022-12-19T02:14:35.361Z,19.07
2022-12-19T02:17:27.264Z,16.30
2022-12-19T02:20:12.378Z,19.03
2022-12-19T02:22:51.803Z,19.80
2022-12-19T02:25:36.938Z,19.00
2022-12-19T02:28:40.840Z,14.80
2022-12-19T02:31:21.728Z,15.97
2022-12-19T02:34:19.163Z,16.93
2022-12-19T02:36:57.216Z,17.70
2022-12-19T02:39:59.942Z,23.13
2022-12-19T02:42:33.599Z,16.13
2022-12-19T02:45:05.804Z,16.10
2022-12-19T02:47:34.210Z,15.37
2022-12-19T02:50:01.520Z,18.33
2022-12-19T02:52:27.962Z,14.33
2022-12-19T02:54:58.883Z,16.90
2022-12-19T02:57:30.514Z,18.70
2022-12-19T03:00:10.768Z,17.87
2022-12-19T03:03:11.084Z,16.77
2022-12-19T03:05:58.007Z,17.87
2022-12-19T03:08:49.133Z,20.30
2022-12-19T03:11:15.927Z,17.00
2022-12-19T03:13:45.964Z,18.37
2022-12-19T03:16:13.237Z,18.70
2022-12-19T03:18:40.151Z,16.50
2022-12-19T03:21:16.015Z,17.77
2022-12-19T03:23:43.015Z,20.80
2022-12-19T03:26:20.836Z,19.20
2022-12-19T03:29:15.439Z,21.93
2022-12-19T03:31:43.999Z,10.83
2022-12-19T03:34:16.493Z,17.33
2022-12-19T03:36:51.739Z,18.73
2022-12-19T03:39:20.453Z,19.60
2022-12-19T03:42:07.656Z,21.47
2022-12-19T03:44:37.805Z,14.50
2022-12-19T03:47:14.585Z,18.10
2022-12-19T03:49:41.311Z,19.60
2022-12-19T03:52:16.797Z,19.83
2022-12-19T03:54:51.245Z,16.80
2022-12-19T03:57:35.961Z,24.37
2022-12-19T04:00:07.178Z,19.07
2022-12-19T04:02:38.312Z,19.40
2022-12-19T04:05:12.909Z,17.70
2022-12-19T04:07:42.674Z,19.80
2022-12-19T04:10:12.609Z,16.90
2022-12-19T04:12:45.281Z,20.90
2022-12-19T04:15:15.226Z,16.57
2022-12-19T04:17:48.779Z,17.80
2022-12-19T04:20:19.212Z,17.37
2022-12-19T04:23:02.174Z,21.40
2022-12-19T04:25:37.238Z,18.83
2022-12-19T04:28:07.847Z,17.07
2022-12-19T04:30:36.853Z,23.50
2022-12-19T04:33:03.843Z,18.37
2022-12-19T04:35:30.295Z,18.97
2022-12-19T04:37:56.814Z,20.17
2022-12-19T04:40:23.160Z,20.10
2022-12-19T04:42:49.628Z,18.87
2022-12-19T04:45:18.841Z,23.33
2022-12-19T04:47:45.421Z,19.13
2022-12-19T04:50:11.764Z,22.37
2022-12-19T04:52:38.128Z,19.60
2022-12-19T04:55:04.841Z,27.60
2022-12-19T04:57:32.016Z,19.37
2022-12-19T04:59:58.402Z,22.80
2022-12-19T05:02:25.616Z,25.43
2022-12-19T05:04:52.100Z,19.80
2022-12-19T05:07:19.551Z,22.90
2022-12-19T05:09:45.875Z,24.37
2022-12-19T05:12:12.582Z,23.23
2022-12-19T05:14:38.924Z,24.87
2022-12-19T05:17:05.298Z,23.23
2022-12-19T05:19:31.620Z,22.13
2022-12-19T05:21:58.103Z,18.93
2022-12-19T05:24:24.479Z,17.80
2022-12-19T05:26:50.844Z,25.10
2022-12-19T05:29:17.347Z,21.27
2022-12-19T05:31:44.281Z,21.80
2022-12-19T05:34:11.058Z,22.83
2022-12-19T05:36:37.490Z,22.90
2022-12-19T05:39:03.908Z,26.50
2022-12-19T05:41:30.394Z,23.90
2022-12-19T05:43:56.837Z,20.00
2022-12-19T05:46:24.705Z,23.37
2022-12-19T05:48:51.466Z,17.97
2022-12-19T05:51:18.947Z,20.60
2022-12-19T05:53:45.404Z,22.27
2022-12-19T05:56:17.728Z,22.93
2022-12-19T05:58:45.230Z,21.03
2022-12-19T06:01:18.157Z,20.40
2022-12-19T06:03:45.553Z,24.37
2022-12-19T06:06:14.689Z,25.07
2022-12-19T06:08:41.534Z,16.63
2022-12-19T06:11:09.533Z,21.67
2022-12-19T06:13:36.756Z,26.40
2022-12-19T06:16:23.186Z,23.00
2022-12-19T06:18:49.928Z,24.70
2022-12-19T06:21:19.034Z,18.90
2022-12-19T06:23:46.160Z,22.57
2022-12-19T06:26:19.368Z,21.47
2022-12-19T06:28:47.756Z,22.80
2022-12-19T06:31:15.155Z,25.13
2022-12-19T06:33:41.573Z,25.77
2022-12-19T06:36:13.443Z,24.17
2022-12-19T06:38:40.087Z,19.97
2022-12-19T06:41:25.087Z,23.03
2022-12-19T06:43:53.567Z,23.47
2022-12-19T06:46:20.524Z,30.20
2022-12-19T06:48:46.900Z,23.23
2022-12-19T06:51:13.422Z,23.93
2022-12-19T06:53:40.329Z,26.47
2022-12-19T06:56:07.061Z,20.43
2022-12-19T06:58:34.325Z,18.83
2022-12-19T07:01:01.479Z,24.87
2022-12-19T07:03:32.189Z,24.13
2022-12-19T07:05:58.606Z,23.23
2022-12-19T07:08:25.003Z,24.60
2022-12-19T07:10:52.988Z,19.37
2022-12-19T07:13:19.356Z,22.03
2022-12-19T07:15:45.871Z,25.07
2022-12-19T07:18:12.850Z,22.30
2022-12-19T07:20:45.204Z,21.83
2022-12-19T07:23:16.756Z,23.50
2022-12-19T07:25:43.267Z,22.80
2022-12-19T07:28:09.816Z,22.40
2022-12-19T07:30:36.323Z,19.20
2022-12-19T07:33:02.831Z,20.90
2022-12-19T07:35:29.782Z,22.17
2022-12-19T07:38:02.645Z,26.07
2022-12-19T07:40:32.867Z,21.23
2022-12-19T07:43:03.988Z,24.90
2022-12-19T07:45:30.766Z,27.40
2022-12-19T07:48:00.995Z,24.87
2022-12-19T07:50:28.084Z,26.07
2022-12-19T07:52:54.460Z,31.13
2022-12-19T07:55:20.948Z,25.23
2022-12-19T07:57:47.347Z,26.07
2022-12-19T08:00:14.072Z,28.03
2022-12-19T08:02:40.852Z,27.03
2022-12-19T08:05:07.471Z,22.57
2022-12-19T08:07:33.896Z,28.23
2022-12-19T08:10:00.590Z,21.50
2022-12-19T08:12:27.180Z,23.80
2022-12-19T08:14:57.157Z,22.53
2022-12-19T08:17:24.095Z,25.30
2022-12-19T08:19:50.491Z,23.77
2022-12-19T08:22:16.859Z,22.17
2022-12-19T08:24:43.260Z,25.70
2022-12-19T08:27:09.656Z,23.80
2022-12-19T08:29:36.210Z,25.40
2022-12-19T08:32:02.580Z,26.97
2022-12-19T08:34:28.949Z,24.30
2022-12-19T08:36:55.350Z,29.40
2022-12-19T08:39:21.674Z,26.67
2022-12-19T08:41:48.047Z,31.43
2022-12-19T08:44:14.388Z,27.63
2022-12-19T08:46:44.988Z,24.70
2022-12-19T08:49:15.254Z,31.87
2022-12-19T08:51:42.089Z,25.30
2022-12-19T08:54:09.790Z,25.70
2022-12-19T08:56:43.612Z,27.53
2022-12-19T08:59:13.753Z,32.50
2022-12-19T09:01:45.064Z,28.80
2022-12-19T09:04:59.777Z,26.00
2022-12-19T09:06:57.930Z,31.03
2022-12-19T09:09:24.274Z,29.83
2022-12-19T09:11:50.758Z,28.30
2022-12-19T09:14:21.153Z,33.77
2022-12-19T09:16:48.208Z,29.33
2022-12-19T09:19:16.341Z,30.60
2022-12-19T09:21:43.520Z,27.40
2022-12-19T09:24:11.045Z,31.53
2022-12-19T09:26:42.062Z,26.50
2022-12-19T09:29:19.449Z,36.77
2022-12-19T09:31:47.853Z,30.93
2022-12-19T09:34:17.643Z,27.53
2022-12-19T09:36:44.124Z,30.03
2022-12-19T09:39:12.278Z,27.10
2022-12-19T09:41:51.635Z,33.27
2022-12-19T09:44:39.561Z,34.30
2022-12-19T09:47:17.255Z,29.27
2022-12-19T09:49:47.518Z,38.03
2022-12-19T09:52:32.943Z,26.10
2022-12-19T09:55:11.675Z,31.30
2022-12-19T09:57:49.880Z,26.53
2022-12-19T10:00:19.681Z,28.50
2022-12-19T10:03:05.302Z,29.90
2022-12-19T10:06:24.546Z,28.20
2022-12-19T10:09:41.923Z,28.90
2022-12-19T10:12:43.616Z,34.33
2022-12-19T10:15:07.253Z,31.40
2022-12-19T10:17:51.415Z,29.73
2022-12-19T10:20:29.470Z,26.50
2022-12-19T10:23:33.911Z,25.80
2022-12-19T10:26:11.440Z,27.97
2022-12-19T10:28:59.277Z,27.00
2022-12-19T10:31:33.262Z,30.07
2022-12-19T10:34:18.151Z,25.57
2022-12-19T10:37:23.204Z,32.30
2022-12-19T10:40:20.028Z,33.47
2022-12-19T10:43:10.470Z,23.63
2022-12-19T10:45:47.089Z,28.33
2022-12-19T10:48:22.006Z,27.07
2022-12-19T10:50:56.765Z,29.70
2022-12-19T10:53:30.092Z,31.47
2022-12-19T10:56:13.354Z,24.60
2022-12-19T10:58:43.475Z,26.50
2022-12-19T11:01:09.784Z,27.03
2022-12-19T11:03:37.370Z,26.23
2022-12-19T11:06:04.781Z,34.23
2022-12-19T11:08:37.581Z,27.37
2022-12-19T11:12:39.651Z,27.20
2022-12-19T11:19:21.571Z,30.17
2022-12-19T11:24:44.286Z,30.10
2022-12-19T11:29:19.403Z,31.00
2022-12-19T11:29:32.462Z,25.20
2022-12-19T11:29:39.637Z,28.10
2022-12-19T11:30:43.936Z,25.63
2022-12-19T11:32:31.986Z,29.60
2022-12-19T11:34:23.803Z,31.23
2022-12-19T11:37:17.971Z,26.23
2022-12-19T11:39:48.169Z,27.27
2022-12-19T11:42:27.366Z,31.37
2022-12-19T11:45:02.765Z,29.43
2022-12-19T11:47:45.719Z,27.67
2022-12-19T11:50:22.430Z,33.47
2022-12-19T11:53:23.890Z,28.33
2022-12-19T11:56:03.090Z,27.80
2022-12-19T11:58:32.784Z,36.33
2022-12-19T12:01:34.187Z,38.53
2022-12-19T12:04:25.396Z,32.97
2022-12-19T12:06:54.155Z,29.17
2022-12-19T12:13:55.267Z,40.40
2022-12-19T12:22:14.688Z,30.97
2022-12-19T12:25:53.669Z,28.33
2022-12-19T12:31:01.480Z,38.17
2022-12-19T12:31:44.835Z,29.63
2022-12-19T12:31:44.954Z,26.47
2022-12-19T12:31:58.471Z,29.23
2022-12-19T12:35:46.224Z,24.50
2022-12-19T12:41:02.612Z,28.10
2022-12-19T12:43:39.605Z,24.10
2022-12-19T12:46:12.417Z,21.13
2022-12-19T12:48:47.559Z,27.73
2022-12-19T12:51:14.963Z,21.10
2022-12-19T12:53:45.574Z,23.80
2022-12-19T12:56:14.472Z,26.80
2022-12-19T12:58:46.716Z,22.83
2022-12-19T13:01:20.094Z,24.60
2022-12-19T13:04:12.244Z,27.47
2022-12-19T13:07:01.835Z,25.73
2022-12-19T13:09:31.117Z,27.60
2022-12-19T13:12:34.678Z,33.23
2022-12-19T13:15:32.337Z,24.63
2022-12-19T13:18:13.898Z,27.33
2022-12-19T13:20:47.928Z,23.63
2022-12-19T13:23:26.391Z,23.20
2022-12-19T13:25:54.601Z,30.70
2022-12-19T13:28:20.866Z,30.80
2022-12-19T13:31:20.274Z,27.33
2022-12-19T13:33:55.885Z,28.07
2022-12-19T13:39:56.173Z,25.90
2022-12-19T13:39:59.033Z,33.30
2022-12-19T13:42:53.916Z,29.57
2022-12-19T13:45:41.395Z,29.97
2022-12-19T13:48:16.020Z,31.97
2022-12-19T13:50:43.784Z,30.83
2022-12-19T13:53:23.354Z,28.83
2022-12-19T13:55:50.192Z,25.83
2022-12-19T13:58:29.121Z,26.83
2022-12-19T14:01:01.082Z,33.90
2022-12-19T14:03:38.009Z,27.90
2022-12-19T14:06:30.032Z,29.97
2022-12-19T14:11:24.044Z,29.17
2022-12-19T14:13:46.279Z,29.80
2022-12-19T14:15:13.721Z,25.80
2022-12-19T14:17:40.904Z,30.03
2022-12-19T14:22:02.430Z,36.23
2022-12-19T14:23:06.320Z,33.60
2022-12-19T14:28:20.906Z,30.27
2022-12-19T14:28:54.581Z,28.13
2022-12-19T14:31:23.755Z,28.60
2022-12-19T14:34:18.555Z,25.60
2022-12-19T14:36:46.477Z,32.57
2022-12-19T14:39:25.207Z,30.70
2022-12-19T14:42:49.252Z,30.20
2022-12-19T14:52:35.692Z,27.90
2022-12-19T14:53:51.973Z,23.67
2022-12-19T14:54:29.931Z,29.57
2022-12-19T14:56:11.344Z,30.23
2022-12-19T14:57:50.579Z,31.30
2022-12-19T15:01:07.206Z,29.10
2022-12-19T15:03:23.688Z,35.80
2022-12-19T15:05:52.114Z,30.40
2022-12-19T15:10:58.983Z,34.47
2022-12-19T15:12:05.777Z,33.73
2022-12-19T15:14:57.677Z,37.50
2022-12-19T15:17:26.688Z,33.73
2022-12-19T15:19:53.077Z,34.17
2022-12-19T15:22:20.782Z,32.20
2022-12-19T15:24:47.565Z,35.70
2022-12-19T15:27:17.690Z,31.37
2022-12-19T15:29:44.764Z,33.20
2022-12-19T15:32:14.821Z,39.07
2022-12-19T15:34:50.528Z,32.57
2022-12-19T15:37:17.954Z,32.23
2022-12-19T15:39:44.740Z,32.50
2022-12-19T15:42:22.750Z,38.57
2022-12-19T15:44:51.001Z,32.57
2022-12-19T15:47:37.272Z,32.97
2022-12-19T15:50:17.104Z,35.53
2022-12-19T15:52:43.441Z,34.13
2022-12-19T15:55:18.194Z,33.90
2022-12-19T15:57:49.203Z,33.20
2022-12-19T16:00:18.438Z,33.33
2022-12-19T16:05:32.747Z,36.00
2022-12-19T16:07:59.239Z,36.13
2022-12-19T16:10:26.254Z,36.40
2022-12-19T16:12:55.614Z,35.50
2022-12-19T16:15:26.388Z,38.90
2022-12-19T16:17:53.977Z,36.20
2022-12-19T16:20:27.045Z,33.00
2022-12-19T16:22:54.867Z,35.97
2022-12-19T16:25:24.375Z,37.43
2022-12-19T16:27:56.767Z,39.83
2022-12-19T16:30:27.780Z,38.73
2022-12-19T16:32:54.132Z,41.03
2022-12-19T16:35:40.393Z,38.33
2022-12-19T16:38:09.309Z,38.63
2022-12-19T16:40:35.811Z,32.00
2022-12-19T16:43:12.513Z,33.73
2022-12-19T16:45:38.932Z,32.33
2022-12-19T16:48:18.217Z,32.70
2022-12-19T16:50:44.831Z,30.30
2022-12-19T16:53:11.218Z,33.10
2022-12-19T16:55:37.746Z,33.50
2022-12-19T16:58:04.185Z,41.40
2022-12-19T17:00:30.753Z,33.50
2022-12-19T17:03:08.384Z,28.00
2022-12-19T17:05:35.481Z,28.83
2022-12-19T17:08:01.960Z,33.23
2022-12-19T17:10:33.533Z,31.37
2022-12-19T17:13:03.332Z,32.17
2022-12-19T17:15:34.325Z,31.10
2022-12-19T17:18:03.288Z,31.87
2022-12-19T17:20:37.227Z,37.13
2022-12-19T17:23:12.483Z,31.93
2022-12-19T17:25:38.885Z,30.00
2022-12-19T17:28:05.233Z,32.47
2022-12-19T17:30:31.725Z,31.23
2022-12-19T17:32:58.092Z,35.13
2022-12-19T17:35:28.819Z,33.67
2022-12-19T17:37:56.676Z,35.60
2022-12-19T17:40:26.470Z,33.87
2022-12-19T17:42:53.067Z,30.60
2022-12-19T17:45:19.455Z,29.80
2022-12-19T17:47:46.261Z,38.27
2022-12-19T17:50:38.134Z,31.53
2022-12-19T17:53:05.304Z,37.63
2022-12-19T17:55:32.139Z,31.10
2022-12-19T17:57:58.819Z,32.20
2022-12-19T18:00:30.772Z,30.90
2022-12-19T18:03:01.606Z,33.57
2022-12-19T18:05:31.879Z,39.10
2022-12-19T18:07:58.290Z,34.20
2022-12-19T18:10:28.088Z,29.23
2022-12-19T18:12:54.982Z,28.63
2022-12-19T18:15:22.553Z,30.50
2022-12-19T18:17:51.477Z,30.50
2022-12-19T18:20:32.105Z,34.40
2022-12-19T18:23:00.038Z,29.43
2022-12-19T18:25:31.007Z,30.57
2022-12-19T18:27:57.865Z,27.10
2022-12-19T18:30:25.760Z,26.73
2022-12-19T18:32:57.411Z,27.50
2022-12-19T18:35:34.765Z,26.30
2022-12-19T18:38:03.668Z,27.33
2022-12-19T18:40:31.883Z,27.07
2022-12-19T18:42:58.765Z,27.20
2022-12-19T18:45:31.567Z,25.20
2022-12-19T18:48:00.570Z,24.10
2022-12-19T18:50:28.481Z,19.87
2022-12-19T18:52:55.638Z,27.13
2022-12-19T18:55:25.069Z,29.17
2022-12-19T18:57:51.598Z,27.83
2022-12-19T19:00:24.923Z,22.80
2022-12-19T19:03:03.921Z,24.57
2022-12-19T19:05:31.999Z,22.37
2022-12-19T19:08:12.651Z,23.63
2022-12-19T19:10:39.283Z,22.70
2022-12-19T19:13:10.168Z,22.07
2022-12-19T19:15:42.793Z,22.63
2022-12-19T19:18:09.238Z,22.00
2022-12-19T19:20:38.690Z,20.47
2022-12-19T19:23:11.277Z,22.97
2022-12-19T19:25:38.210Z,23.53
2022-12-19T19:28:06.003Z,23.10
2022-12-19T19:30:34.473Z,23.47
2022-12-19T19:33:13.996Z,22.67
2022-12-19T19:35:44.059Z,24.73
2022-12-19T19:38:11.625Z,24.43
2022-12-19T19:40:38.162Z,21.70
2022-12-19T19:43:04.880Z,23.00
2022-12-19T19:45:31.406Z,22.83
2022-12-19T19:47:57.795Z,23.43
2022-12-19T19:50:24.658Z,21.60
2022-12-19T19:52:50.983Z,25.53
2022-12-19T19:55:17.398Z,18.10
2022-12-19T19:57:43.752Z,21.00
2022-12-19T20:00:10.681Z,22.43
2022-12-19T20:02:37.223Z,21.07
2022-12-19T20:05:04.014Z,18.37
2022-12-19T20:07:30.708Z,21.17
2022-12-19T20:09:57.088Z,27.40
2022-12-19T20:12:24.244Z,20.23
2022-12-19T20:14:50.625Z,19.27
2022-12-19T20:17:16.950Z,20.93
2022-12-19T20:19:43.546Z,27.63
2022-12-19T20:22:10.235Z,24.40
2022-12-19T20:24:36.610Z,21.97
2022-12-19T20:27:03.079Z,18.50
2022-12-19T20:29:29.569Z,22.23
2022-12-19T20:31:56.472Z,19.70
2022-12-19T20:34:23.748Z,19.70
2022-12-19T20:36:50.082Z,19.43
2022-12-19T20:39:21.987Z,17.70
2022-12-19T20:41:52.566Z,21.30
2022-12-19T20:44:24.070Z,19.33
2022-12-19T20:46:51.885Z,22.97
2022-12-19T20:49:18.852Z,17.57
2022-12-19T20:51:47.510Z,18.27
2022-12-19T20:54:14.911Z,21.60
2022-12-19T20:56:41.931Z,21.10
2022-12-19T20:59:09.662Z,15.87
2022-12-19T21:01:36.185Z,18.80
2022-12-19T21:04:02.801Z,15.90
2022-12-19T21:06:29.332Z,16.37
2022-12-19T21:08:56.798Z,17.83
2022-12-19T21:11:24.455Z,16.90
2022-12-19T21:13:50.945Z,17.20
2022-12-19T21:16:21.667Z,21.00
2022-12-19T21:18:49.919Z,20.53
2022-12-19T21:21:19.610Z,17.77
2022-12-19T21:23:46.208Z,20.17
2022-12-19T21:26:12.756Z,18.13
2022-12-19T21:28:39.527Z,18.37
2022-12-19T21:31:14.203Z,18.90
2022-12-19T21:33:40.779Z,16.90
2022-12-19T21:36:09.081Z,17.23
2022-12-19T21:38:37.042Z,14.20
2022-12-19T21:41:05.916Z,13.30
2022-12-19T21:43:33.623Z,14.83
2022-12-19T21:46:12.297Z,12.87
2022-12-19T21:48:40.160Z,16.20
2022-12-19T21:51:07.732Z,15.47
2022-12-19T21:53:35.898Z,17.73
2022-12-19T21:56:07.191Z,18.47
2022-12-19T21:58:34.447Z,16.87
2022-12-19T22:01:08.163Z,18.33
2022-12-19T22:03:35.159Z,14.90
2022-12-19T22:06:01.787Z,17.60
2022-12-19T22:08:28.383Z,19.33
2022-12-19T22:10:54.753Z,16.17
2022-12-19T22:13:21.193Z,18.07
2022-12-19T22:15:47.550Z,15.53
2022-12-19T22:18:14.199Z,18.07
2022-12-19T22:20:44.860Z,15.70
2022-12-19T22:23:13.585Z,13.50
2022-12-19T22:25:40.368Z,19.57
2022-12-19T22:28:07.467Z,14.20
2022-12-19T22:30:36.582Z,15.30
2022-12-19T22:33:03.793Z,17.13
2022-12-19T22:35:30.550Z,17.90
2022-12-19T22:37:57.037Z,14.87
2022-12-19T22:40:23.541Z,17.03
2022-12-19T22:42:50.078Z,16.20
2022-12-19T22:45:16.501Z,17.00
2022-12-19T22:47:43.225Z,13.43
2022-12-19T22:50:10.448Z,17.70
2022-12-19T22:52:39.598Z,16.60
2022-12-19T22:55:06.820Z,13.40
2022-12-19T22:57:33.599Z,16.30
2022-12-19T22:59:59.933Z,13.17
2022-12-19T23:02:26.493Z,17.50
2022-12-19T23:04:53.104Z,13.10
2022-12-19T23:07:19.600Z,16.03
2022-12-19T23:09:45.940Z,20.37
2022-12-19T23:12:12.471Z,14.10
2022-12-19T23:14:38.797Z,19.17
2022-12-19T23:17:05.238Z,20.50
2022-12-19T23:19:31.653Z,17.83
2022-12-19T23:21:58.575Z,17.67
2022-12-19T23:24:25.239Z,13.43
2022-12-19T23:26:52.548Z,15.03
2022-12-19T23:29:18.908Z,14.13
2022-12-19T23:31:46.833Z,17.07
2022-12-19T23:34:14.795Z,13.87
2022-12-19T23:39:27.818Z,14.00
2022-12-19T23:41:54.163Z,12.47
2022-12-19T23:44:20.766Z,13.63
2022-12-19T23:46:47.144Z,19.37
2022-12-19T23:49:13.651Z,12.77
2022-12-19T23:51:39.991Z,11.93
2022-12-19T23:54:06.632Z,15.27
2022-12-19T23:56:33.174Z,16.20
2022-12-19T23:59:00.412Z,19.77
